createdAt,value
2016-11-04T00:00:07.358Z,1.34
2016-11-04T00:01:07.849Z,1.39
2016-11-04T00:02:07.445Z,1.41
2016-11-04T00:03:07.985Z,1.47
2016-11-04T00:04:07.711Z,1.48
2016-11-04T00:05:07.229Z,1.48
2016-11-04T00:06:07.840Z,1.45
2016-11-04T00:07:07.513Z,1.27
2016-11-04T00:08:09.084Z,1.21
2016-11-04T00:09:07.725Z,1.24
2016-11-04T00:10:07.407Z,1.16
2016-11-04T00:11:08.018Z,1.31
2016-11-04T00:12:07.633Z,1.63
2016-11-04T00:13:07.204Z,2.00
2016-11-04T00:14:07.832Z,2.20
2016-11-04T00:15:07.415Z,2.30
2016-11-04T00:16:08.000Z,2.19
2016-11-04T00:17:07.665Z,2.04
2016-11-04T00:18:07.222Z,2.03
2016-11-04T00:19:07.836Z,1.99
2016-11-04T00:20:07.474Z,1.44
2016-11-04T00:21:08.185Z,1.22
2016-11-04T00:22:07.841Z,1.30
2016-11-04T00:23:07.519Z,1.24
2016-11-04T00:24:08.018Z,1.32
2016-11-04T00:25:08.238Z,1.11
2016-11-04T00:26:07.759Z,1.05
2016-11-04T00:27:07.274Z,1.20
2016-11-04T00:28:07.870Z,1.12
2016-11-04T00:29:07.385Z,1.52
2016-11-04T00:30:08.005Z,1.71
2016-11-04T00:31:07.680Z,1.38
2016-11-04T00:32:07.697Z,1.03
2016-11-04T00:33:07.279Z,1.03
2016-11-04T00:34:07.784Z,1.27
2016-11-04T00:35:07.247Z,1.15
2016-11-04T00:36:07.860Z,1.07
2016-11-04T00:37:07.432Z,1.20
2016-11-04T00:38:08.914Z,1.26
2016-11-04T00:39:07.959Z,1.26
2016-11-04T00:40:07.681Z,1.09
2016-11-04T00:41:07.306Z,1.12
2016-11-04T00:42:07.902Z,0.93
2016-11-04T00:43:08.440Z,0.78
2016-11-04T00:44:08.079Z,1.05
2016-11-04T00:45:07.695Z,1.08
2016-11-04T00:46:07.227Z,1.42
2016-11-04T00:47:07.775Z,1.57
2016-11-04T00:48:07.330Z,1.91
2016-11-04T00:49:07.899Z,2.07
2016-11-04T00:50:07.493Z,2.07
2016-11-04T00:51:08.070Z,1.55
2016-11-04T00:52:07.625Z,1.44
2016-11-04T00:53:07.346Z,1.28
2016-11-04T00:54:08.607Z,1.08
2016-11-04T00:55:07.910Z,1.02
2016-11-04T00:56:07.550Z,1.00
2016-11-04T00:57:07.179Z,0.98
2016-11-04T00:58:08.656Z,0.91
2016-11-04T00:59:07.218Z,0.89
2016-11-04T01:00:07.768Z,0.86
2016-11-04T01:01:07.547Z,0.83
2016-11-04T01:02:08.040Z,0.87
2016-11-04T01:03:07.712Z,0.81
2016-11-04T01:04:07.367Z,0.81
2016-11-04T01:05:08.171Z,0.82
2016-11-04T01:06:07.721Z,1.24
2016-11-04T01:07:07.338Z,1.67
2016-11-04T01:08:07.290Z,1.72
2016-11-04T01:09:08.008Z,1.78
2016-11-04T01:10:07.636Z,1.56
2016-11-04T01:11:07.832Z,1.28
2016-11-04T01:12:07.528Z,1.09
2016-11-04T01:13:08.214Z,0.95
2016-11-04T01:14:07.822Z,0.93
2016-11-04T01:15:07.541Z,0.93
2016-11-04T01:16:08.140Z,0.90
2016-11-04T01:17:08.103Z,0.98
2016-11-04T01:18:07.954Z,1.17
2016-11-04T01:19:07.803Z,1.11
2016-11-04T01:20:07.455Z,1.12
2016-11-04T01:21:08.118Z,1.11
2016-11-04T01:22:07.626Z,1.10
2016-11-04T01:23:07.066Z,1.14
2016-11-04T01:24:07.621Z,1.57
2016-11-04T01:25:07.111Z,1.65
2016-11-04T01:26:07.618Z,1.85
2016-11-04T01:27:07.089Z,1.86
2016-11-04T01:28:07.714Z,1.97
2016-11-04T01:29:07.397Z,1.96
2016-11-04T01:30:07.288Z,1.96
2016-11-04T01:31:07.802Z,1.91
2016-11-04T01:32:07.678Z,1.93
2016-11-04T01:33:07.256Z,1.86
2016-11-04T01:34:07.901Z,1.85
2016-11-04T01:35:08.048Z,1.61
2016-11-04T01:36:07.847Z,1.42
2016-11-04T01:37:07.458Z,1.54
2016-11-04T01:38:07.957Z,1.13
2016-11-04T01:39:07.848Z,1.03
2016-11-04T01:40:07.308Z,0.87
2016-11-04T01:41:07.826Z,0.82
2016-11-04T01:42:07.372Z,0.80
2016-11-04T01:43:07.927Z,0.92
2016-11-04T01:44:07.442Z,0.97
2016-11-04T01:45:08.131Z,0.96
2016-11-04T01:46:07.898Z,1.04
2016-11-04T01:47:07.445Z,0.95
2016-11-04T01:48:07.961Z,1.04
2016-11-04T01:49:07.783Z,0.83
2016-11-04T01:50:07.646Z,0.70
2016-11-04T01:51:07.498Z,0.88
2016-11-04T01:52:08.059Z,0.99
2016-11-04T01:53:07.270Z,0.98
2016-11-04T01:54:08.187Z,0.98
2016-11-04T01:55:08.078Z,1.28
2016-11-04T01:56:07.618Z,1.61
2016-11-04T01:57:07.403Z,1.50
2016-11-04T01:58:07.994Z,1.16
2016-11-04T01:59:07.562Z,1.07
2016-11-04T02:00:08.047Z,1.09
2016-11-04T02:01:07.979Z,0.97
2016-11-04T02:02:07.558Z,1.06
2016-11-04T02:03:07.292Z,1.05
2016-11-04T02:04:07.783Z,1.14
2016-11-04T02:05:07.520Z,1.11
2016-11-04T02:06:08.029Z,1.36
2016-11-04T02:07:07.648Z,1.23
2016-11-04T02:08:07.249Z,0.98
2016-11-04T02:09:07.876Z,0.78
2016-11-04T02:10:07.511Z,0.79
2016-11-04T02:11:08.164Z,1.09
2016-11-04T02:12:08.088Z,1.27
2016-11-04T02:13:07.256Z,1.22
2016-11-04T02:14:07.771Z,0.99
2016-11-04T02:15:07.328Z,0.92
2016-11-04T02:16:07.909Z,0.75
2016-11-04T02:17:07.586Z,0.78
2016-11-04T02:18:07.249Z,0.85
2016-11-04T02:19:07.753Z,0.79
2016-11-04T02:20:07.835Z,0.73
2016-11-04T02:21:07.620Z,0.75
2016-11-04T02:22:07.324Z,0.59
2016-11-04T02:23:07.907Z,0.71
2016-11-04T02:24:07.751Z,0.64
2016-11-04T02:25:07.330Z,0.88
2016-11-04T02:26:07.960Z,0.77
2016-11-04T02:27:07.566Z,0.61
2016-11-04T02:28:08.267Z,0.51
2016-11-04T02:29:08.240Z,0.43
2016-11-04T02:30:07.370Z,0.66
2016-11-04T02:31:08.109Z,0.80
2016-11-04T02:32:07.796Z,0.80
2016-11-04T02:33:07.790Z,0.63
2016-11-04T02:34:08.010Z,0.72
2016-11-04T02:35:07.557Z,0.61
2016-11-04T02:36:08.113Z,0.64
2016-11-04T02:37:07.541Z,0.76
2016-11-04T02:38:07.233Z,0.58
2016-11-04T02:39:07.682Z,0.77
2016-11-04T02:40:07.393Z,1.25
2016-11-04T02:41:07.794Z,1.54
2016-11-04T02:42:07.241Z,1.62
2016-11-04T02:43:07.895Z,1.67
2016-11-04T02:44:08.011Z,1.65
2016-11-04T02:45:08.080Z,1.70
2016-11-04T02:46:08.030Z,1.79
2016-11-04T02:47:07.350Z,1.69
2016-11-04T02:48:08.085Z,1.52
2016-11-04T02:49:07.746Z,1.44
2016-11-04T02:50:07.325Z,1.34
2016-11-04T02:51:08.030Z,1.28
2016-11-04T02:52:07.688Z,1.03
2016-11-04T02:53:07.319Z,0.88
2016-11-04T02:54:08.028Z,0.89
2016-11-04T02:55:07.875Z,0.73
2016-11-04T02:56:07.333Z,0.50
2016-11-04T02:57:07.701Z,0.42
2016-11-04T02:58:07.338Z,0.37
2016-11-04T02:59:07.932Z,0.57
2016-11-04T03:00:07.521Z,0.84
2016-11-04T03:01:08.092Z,1.01
2016-11-04T03:02:07.716Z,1.13
2016-11-04T03:03:07.357Z,1.04
2016-11-04T03:04:07.775Z,0.89
2016-11-04T03:05:08.167Z,0.85
2016-11-04T03:06:07.481Z,0.78
2016-11-04T03:07:08.935Z,0.64
2016-11-04T03:08:07.972Z,0.55
2016-11-04T03:09:07.907Z,0.73
2016-11-04T03:10:07.571Z,0.69
2016-11-04T03:11:07.320Z,0.87
2016-11-04T03:12:08.030Z,0.52
2016-11-04T03:13:07.762Z,0.33
2016-11-04T03:14:07.420Z,0.54
2016-11-04T03:15:08.882Z,0.49
2016-11-04T03:16:07.496Z,0.81
2016-11-04T03:17:08.145Z,0.80
2016-11-04T03:18:08.480Z,0.73
2016-11-04T03:19:08.104Z,0.89
2016-11-04T03:20:07.776Z,0.68
2016-11-04T03:21:07.464Z,0.51
2016-11-04T03:22:08.140Z,0.45
2016-11-04T03:23:07.756Z,0.36
2016-11-04T03:24:07.506Z,0.50
2016-11-04T03:25:08.105Z,0.54
2016-11-04T03:26:07.678Z,0.69
2016-11-04T03:27:07.487Z,0.68
2016-11-04T03:28:08.064Z,0.62
2016-11-04T03:29:07.634Z,0.45
2016-11-04T03:30:07.174Z,0.45
2016-11-04T03:31:07.854Z,0.50
2016-11-04T03:32:07.550Z,0.57
2016-11-04T03:33:08.125Z,0.72
2016-11-04T03:34:07.493Z,0.68
2016-11-04T03:35:08.087Z,0.86
2016-11-04T03:36:07.933Z,1.01
2016-11-04T03:37:07.422Z,1.07
2016-11-04T03:38:07.912Z,1.25
2016-11-04T03:39:07.427Z,0.93
2016-11-04T03:40:07.947Z,0.71
2016-11-04T03:41:07.640Z,0.65
2016-11-04T03:42:07.263Z,0.42
2016-11-04T03:43:07.347Z,0.39
2016-11-04T03:44:07.819Z,0.27
2016-11-04T03:45:07.375Z,0.24
2016-11-04T03:46:07.857Z,0.23
2016-11-04T03:47:07.327Z,0.31
2016-11-04T03:48:07.977Z,0.26
2016-11-04T03:49:07.643Z,0.30
2016-11-04T03:50:07.565Z,0.36
2016-11-04T03:51:07.134Z,0.72
2016-11-04T03:52:07.625Z,0.94
2016-11-04T03:53:07.188Z,1.14
2016-11-04T03:54:07.648Z,1.20
2016-11-04T03:55:07.408Z,1.08
2016-11-04T03:56:07.901Z,0.93
2016-11-04T03:57:07.531Z,0.69
2016-11-04T03:58:08.241Z,0.67
2016-11-04T03:59:07.899Z,0.60
2016-11-04T04:00:07.476Z,0.39
2016-11-04T04:01:08.113Z,0.33
2016-11-04T04:02:07.801Z,0.32
2016-11-04T04:03:07.623Z,0.34
2016-11-04T04:04:08.085Z,0.32
2016-11-04T04:05:07.704Z,0.27
2016-11-04T04:06:07.325Z,0.51
2016-11-04T04:07:07.872Z,0.78
2016-11-04T04:08:07.347Z,0.76
2016-11-04T04:09:07.978Z,0.88
2016-11-04T04:10:07.651Z,0.93
2016-11-04T04:11:07.228Z,1.01
2016-11-04T04:12:07.873Z,0.81
2016-11-04T04:13:07.514Z,0.69
2016-11-04T04:14:08.158Z,0.52
2016-11-04T04:15:07.857Z,0.73
2016-11-04T04:16:07.567Z,0.73
2016-11-04T04:17:08.241Z,0.52
2016-11-04T04:18:07.811Z,0.34
2016-11-04T04:19:07.343Z,0.32
2016-11-04T04:20:07.897Z,0.31
2016-11-04T04:21:07.497Z,0.30
2016-11-04T04:22:08.045Z,0.36
2016-11-04T04:23:07.532Z,0.18
2016-11-04T04:24:08.117Z,0.37
2016-11-04T04:25:07.809Z,0.27
2016-11-04T04:26:07.286Z,0.39
2016-11-04T04:27:07.888Z,0.28
2016-11-04T04:28:07.416Z,0.23
2016-11-04T04:29:07.979Z,0.41
2016-11-04T04:30:07.517Z,0.31
2016-11-04T04:31:08.098Z,0.13
2016-11-04T04:32:07.914Z,0.10
2016-11-04T04:33:07.530Z,-0.01
2016-11-04T04:34:08.129Z,0.10
2016-11-04T04:35:07.710Z,0.17
2016-11-04T04:36:07.165Z,0.12
2016-11-04T04:37:07.709Z,-0.01
2016-11-04T04:38:07.355Z,-0.05
2016-11-04T04:39:07.984Z,0.40
2016-11-04T04:40:07.724Z,0.31
2016-11-04T04:41:07.329Z,0.06
2016-11-04T04:42:13.283Z,-0.01
2016-11-04T04:43:07.948Z,0.05
2016-11-04T04:44:07.930Z,0.12
2016-11-04T04:45:08.109Z,0.14
2016-11-04T04:46:07.636Z,0.22
2016-11-04T04:47:07.112Z,0.22
2016-11-04T04:48:07.680Z,0.32
2016-11-04T04:49:07.152Z,0.42
2016-11-04T04:50:07.712Z,0.71
2016-11-04T04:51:07.387Z,0.80
2016-11-04T04:52:08.136Z,0.94
2016-11-04T04:53:07.684Z,0.80
2016-11-04T04:54:07.310Z,0.57
2016-11-04T04:55:07.933Z,0.39
2016-11-04T04:56:07.606Z,0.09
2016-11-04T04:57:07.934Z,0.15
2016-11-04T04:58:07.540Z,0.16
2016-11-04T04:59:08.050Z,-0.07
2016-11-04T05:00:07.571Z,0.14
2016-11-04T05:01:08.131Z,0.21
2016-11-04T05:02:07.680Z,0.46
2016-11-04T05:03:07.248Z,0.28
2016-11-04T05:04:07.739Z,0.16
2016-11-04T05:05:07.332Z,0.02
2016-11-04T05:06:07.937Z,0.05
2016-11-04T05:07:07.498Z,-0.07
2016-11-04T05:08:07.511Z,-0.08
2016-11-04T05:09:08.103Z,-0.14
2016-11-04T05:10:07.681Z,-0.06
2016-11-04T05:11:07.203Z,0.37
2016-11-04T05:12:07.776Z,0.42
2016-11-04T05:13:07.601Z,0.11
2016-11-04T05:14:07.148Z,0.19
2016-11-04T05:15:10.167Z,0.14
2016-11-04T05:16:07.856Z,0.10
2016-11-04T05:17:07.668Z,0.01
2016-11-04T05:18:07.296Z,-0.00
2016-11-04T05:19:08.073Z,0.10
2016-11-04T05:20:07.752Z,0.15
2016-11-04T05:21:07.413Z,0.07
2016-11-04T05:22:08.001Z,-0.10
2016-11-04T05:23:07.570Z,-0.02
2016-11-04T05:24:08.045Z,-0.03
2016-11-04T05:25:10.154Z,-0.03
2016-11-04T05:26:08.139Z,0.29
2016-11-04T05:27:07.825Z,0.49
2016-11-04T05:28:07.372Z,0.45
2016-11-04T05:29:08.027Z,0.59
2016-11-04T05:30:07.546Z,0.14
2016-11-04T05:31:08.157Z,0.19
2016-11-04T05:32:07.766Z,0.01
2016-11-04T05:33:07.245Z,0.01
2016-11-04T05:34:08.009Z,0.18
2016-11-04T05:35:08.104Z,0.06
2016-11-04T05:36:07.783Z,0.13
2016-11-04T05:37:07.429Z,0.23
2016-11-04T05:38:08.131Z,-0.06
2016-11-04T05:39:07.902Z,-0.05
2016-11-04T05:40:07.637Z,-0.28
2016-11-04T05:41:08.151Z,-0.13
2016-11-04T05:42:07.275Z,-0.10
2016-11-04T05:43:07.829Z,-0.04
2016-11-04T05:44:07.536Z,0.09
2016-11-04T05:45:08.241Z,0.32
2016-11-04T05:46:07.807Z,0.62
2016-11-04T05:47:07.482Z,0.93
2016-11-04T05:48:08.108Z,0.95
2016-11-04T05:49:07.773Z,0.46
2016-11-04T05:50:07.413Z,0.52
2016-11-04T05:51:08.009Z,0.58
2016-11-04T05:52:07.594Z,0.67
2016-11-04T05:53:07.096Z,0.42
2016-11-04T05:54:07.713Z,0.24
2016-11-04T05:55:07.423Z,0.24
2016-11-04T05:56:08.153Z,-0.05
2016-11-04T05:57:07.812Z,-0.08
2016-11-04T05:58:07.457Z,-0.18
2016-11-04T05:59:08.022Z,-0.14
2016-11-04T06:00:07.565Z,-0.12
2016-11-04T06:01:08.105Z,-0.03
2016-11-04T06:02:07.747Z,0.50
2016-11-04T06:03:07.311Z,0.42
2016-11-04T06:04:07.881Z,0.28
2016-11-04T06:05:07.437Z,0.51
2016-11-04T06:06:08.098Z,0.65
2016-11-04T06:07:07.644Z,0.49
2016-11-04T06:08:07.214Z,0.33
2016-11-04T06:09:07.704Z,0.59
2016-11-04T06:10:07.194Z,0.85
2016-11-04T06:11:07.642Z,0.77
2016-11-04T06:12:07.576Z,0.62
2016-11-04T06:13:08.177Z,0.60
2016-11-04T06:14:07.192Z,0.59
2016-11-04T06:15:07.721Z,0.68
2016-11-04T06:16:07.286Z,0.45
2016-11-04T06:17:08.091Z,0.67
2016-11-04T06:18:08.617Z,0.81
2016-11-04T06:19:07.272Z,0.77
2016-11-04T06:20:07.978Z,0.85
2016-11-04T06:21:07.553Z,0.60
2016-11-04T06:22:07.266Z,0.66
2016-11-04T06:23:08.120Z,0.69
2016-11-04T06:24:07.314Z,0.38
2016-11-04T06:25:07.870Z,0.59
2016-11-04T06:26:07.570Z,0.33
2016-11-04T06:27:08.060Z,0.15
2016-11-04T06:28:07.681Z,-0.01
2016-11-04T06:29:07.365Z,-0.11
2016-11-04T06:30:07.872Z,-0.16
2016-11-04T06:31:07.477Z,0.12
2016-11-04T06:32:08.064Z,0.58
2016-11-04T06:33:07.705Z,0.71
2016-11-04T06:34:08.236Z,0.50
2016-11-04T06:35:07.871Z,0.43
2016-11-04T06:36:07.357Z,0.27
2016-11-04T06:37:07.993Z,-0.03
2016-11-04T06:38:07.596Z,-0.14
2016-11-04T06:39:07.955Z,-0.05
2016-11-04T06:40:07.613Z,0.07
2016-11-04T06:41:08.184Z,-0.01
2016-11-04T06:42:07.820Z,0.05
2016-11-04T06:43:07.448Z,0.24
2016-11-04T06:44:08.051Z,0.19
2016-11-04T06:45:07.634Z,0.63
2016-11-04T06:46:07.301Z,0.82
2016-11-04T06:47:07.876Z,0.91
2016-11-04T06:48:07.377Z,0.82
2016-11-04T06:49:08.014Z,0.69
2016-11-04T06:50:07.676Z,0.63
2016-11-04T06:51:07.156Z,0.58
2016-11-04T06:52:07.788Z,0.49
2016-11-04T06:53:08.136Z,0.67
2016-11-04T06:54:07.788Z,0.49
2016-11-04T06:55:07.874Z,0.33
2016-11-04T06:56:07.493Z,0.32
2016-11-04T06:57:08.212Z,0.26
2016-11-04T06:58:08.214Z,0.31
2016-11-04T06:59:07.821Z,0.14
2016-11-04T07:00:07.540Z,0.16
2016-11-04T07:01:08.094Z,0.28
2016-11-04T07:02:07.654Z,0.22
2016-11-04T07:03:07.115Z,0.32
2016-11-04T07:04:07.675Z,0.36
2016-11-04T07:05:07.184Z,0.54
2016-11-04T07:06:07.843Z,0.44
2016-11-04T07:07:07.514Z,0.42
2016-11-04T07:08:08.235Z,0.44
2016-11-04T07:09:07.872Z,0.59
2016-11-04T07:10:08.015Z,0.62
2016-11-04T07:11:07.428Z,0.58
2016-11-04T07:12:08.068Z,0.60
2016-11-04T07:13:07.790Z,0.75
2016-11-04T07:14:07.386Z,1.06
2016-11-04T07:15:07.923Z,1.01
2016-11-04T07:16:07.435Z,0.90
2016-11-04T07:17:07.484Z,0.88
2016-11-04T07:18:08.065Z,0.65
2016-11-04T07:19:07.750Z,0.67
2016-11-04T07:20:07.788Z,0.80
2016-11-04T07:21:08.299Z,0.61
2016-11-04T07:22:07.945Z,0.65
2016-11-04T07:23:07.626Z,0.68
2016-11-04T07:24:07.271Z,0.89
2016-11-04T07:25:07.763Z,1.11
2016-11-04T07:26:07.267Z,1.10
2016-11-04T07:27:07.769Z,0.97
2016-11-04T07:28:07.385Z,1.02
2016-11-04T07:29:08.015Z,1.18
2016-11-04T07:30:07.570Z,1.22
2016-11-04T07:31:08.122Z,1.04
2016-11-04T07:32:07.659Z,1.27
2016-11-04T07:33:07.178Z,1.25
2016-11-04T07:34:07.693Z,1.04
2016-11-04T07:35:07.263Z,1.15
2016-11-04T07:36:07.948Z,1.09
2016-11-04T07:37:07.523Z,1.14
2016-11-04T07:38:08.158Z,1.11
2016-11-04T07:39:07.862Z,1.27
2016-11-04T07:40:07.457Z,1.24
2016-11-04T07:41:07.948Z,1.34
2016-11-04T07:42:07.513Z,1.47
2016-11-04T07:43:08.200Z,1.38
2016-11-04T07:44:07.837Z,1.40
2016-11-04T07:45:07.671Z,1.65
2016-11-04T07:46:07.265Z,1.53
2016-11-04T07:47:07.771Z,1.55
2016-11-04T07:48:07.332Z,1.63
2016-11-04T07:49:08.006Z,1.67
2016-11-04T07:50:07.724Z,1.73
2016-11-04T07:51:08.117Z,1.74
2016-11-04T07:52:07.644Z,1.73
2016-11-04T07:53:07.286Z,1.78
2016-11-04T07:54:07.947Z,1.75
2016-11-04T07:55:07.668Z,1.88
2016-11-04T07:56:07.446Z,1.93
2016-11-04T07:57:08.183Z,2.10
2016-11-04T07:58:07.867Z,2.01
2016-11-04T07:59:07.550Z,1.94
2016-11-04T08:00:08.167Z,1.96
2016-11-04T08:01:07.896Z,2.01
2016-11-04T08:02:07.530Z,2.06
2016-11-04T08:03:07.917Z,2.29
2016-11-04T08:04:07.591Z,2.36
2016-11-04T08:05:07.223Z,2.35
2016-11-04T08:06:07.908Z,2.25
2016-11-04T08:07:07.576Z,2.24
2016-11-04T08:08:08.006Z,2.35
2016-11-04T08:09:07.712Z,2.43
2016-11-04T08:10:07.224Z,2.40
2016-11-04T08:11:07.822Z,2.43
2016-11-04T08:12:07.545Z,2.56
2016-11-04T08:13:07.777Z,2.47
2016-11-04T08:14:07.547Z,2.48
2016-11-04T08:15:08.127Z,2.59
2016-11-04T08:16:07.686Z,2.77
2016-11-04T08:17:07.306Z,2.85
2016-11-04T08:18:07.909Z,2.75
2016-11-04T08:19:07.604Z,2.80
2016-11-04T08:20:07.165Z,2.78
2016-11-04T08:21:07.653Z,2.93
2016-11-04T08:22:07.369Z,2.89
2016-11-04T08:23:07.958Z,2.98
2016-11-04T08:24:07.740Z,3.17
2016-11-04T08:25:07.846Z,3.11
2016-11-04T08:26:07.521Z,3.09
2016-11-04T08:27:08.222Z,3.30
2016-11-04T08:28:07.826Z,3.35
2016-11-04T08:29:07.389Z,3.29
2016-11-04T08:30:07.983Z,3.25
2016-11-04T08:31:07.617Z,3.23
2016-11-04T08:32:07.180Z,3.24
2016-11-04T08:33:07.727Z,3.21
2016-11-04T08:34:07.441Z,3.42
2016-11-04T08:35:08.012Z,3.53
2016-11-04T08:36:07.616Z,3.59
2016-11-04T08:37:07.101Z,3.71
2016-11-04T08:38:07.642Z,3.75
2016-11-04T08:39:07.109Z,3.95
2016-11-04T08:40:07.655Z,3.89
2016-11-04T08:41:07.366Z,3.77
2016-11-04T08:42:07.969Z,3.72
2016-11-04T08:43:07.507Z,3.98
2016-11-04T08:44:08.109Z,4.00
2016-11-04T08:45:07.639Z,3.94
2016-11-04T08:46:07.240Z,4.08
2016-11-04T08:47:07.808Z,4.13
2016-11-04T08:48:07.305Z,4.03
2016-11-04T08:49:07.882Z,4.02
2016-11-04T08:50:07.477Z,3.99
2016-11-04T08:51:08.152Z,4.05
2016-11-04T08:52:07.794Z,4.12
2016-11-04T08:53:07.578Z,4.11
2016-11-04T08:54:07.278Z,4.27
2016-11-04T08:55:07.918Z,4.37
2016-11-04T08:56:07.527Z,4.46
2016-11-04T08:57:07.155Z,4.47
2016-11-04T08:58:07.788Z,4.49
2016-11-04T08:59:07.431Z,4.52
2016-11-04T09:00:08.031Z,4.50
2016-11-04T09:01:07.699Z,4.54
2016-11-04T09:02:07.389Z,4.71
2016-11-04T09:03:08.245Z,4.86
2016-11-04T09:04:07.777Z,4.80
2016-11-04T09:05:07.353Z,4.83
2016-11-04T09:06:07.955Z,4.77
2016-11-04T09:07:07.567Z,4.79
2016-11-04T09:08:07.115Z,4.94
2016-11-04T09:09:07.795Z,5.00
2016-11-04T09:10:07.360Z,5.01
2016-11-04T09:11:07.958Z,4.94
2016-11-04T09:12:07.587Z,4.92
2016-11-04T09:13:07.166Z,4.99
2016-11-04T09:14:07.810Z,4.95
2016-11-04T09:15:07.460Z,5.08
2016-11-04T09:16:08.036Z,5.16
2016-11-04T09:17:07.864Z,5.11
2016-11-04T09:18:07.466Z,5.22
2016-11-04T09:19:08.113Z,5.22
2016-11-04T09:20:07.732Z,5.18
2016-11-04T09:21:07.291Z,5.21
2016-11-04T09:22:07.912Z,5.24
2016-11-04T09:23:07.703Z,5.17
2016-11-04T09:24:07.385Z,5.21
2016-11-04T09:25:07.980Z,5.29
2016-11-04T09:26:07.608Z,5.41
2016-11-04T09:27:07.189Z,5.49
2016-11-04T09:28:07.816Z,5.49
2016-11-04T09:29:07.370Z,5.58
2016-11-04T09:30:08.051Z,5.60
2016-11-04T09:31:07.710Z,5.56
2016-11-04T09:32:07.333Z,5.57
2016-11-04T09:33:07.959Z,5.60
2016-11-04T09:34:07.465Z,5.64
2016-11-04T09:35:08.012Z,5.62
2016-11-04T09:36:07.693Z,5.62
2016-11-04T09:37:07.424Z,5.68
2016-11-04T09:38:08.069Z,5.77
2016-11-04T09:39:07.665Z,5.70
2016-11-04T09:40:07.273Z,5.73
2016-11-04T09:41:07.875Z,5.75
2016-11-04T09:42:07.517Z,5.84
2016-11-04T09:43:08.102Z,5.82
2016-11-04T09:44:07.668Z,5.78
2016-11-04T09:45:07.275Z,5.79
2016-11-04T09:46:07.865Z,5.82
2016-11-04T09:47:08.008Z,5.81
2016-11-04T09:48:07.590Z,5.90
2016-11-04T09:49:07.294Z,5.96
2016-11-04T09:50:07.997Z,5.99
2016-11-04T09:51:07.633Z,6.06
2016-11-04T09:52:07.261Z,6.10
2016-11-04T09:53:07.902Z,6.10
2016-11-04T09:54:08.015Z,6.17
2016-11-04T09:55:07.634Z,6.18
2016-11-04T09:56:07.177Z,6.23
2016-11-04T09:57:07.838Z,6.23
2016-11-04T09:58:08.117Z,6.25
2016-11-04T09:59:07.730Z,6.27
2016-11-04T10:00:12.789Z,6.28
2016-11-04T10:01:07.306Z,6.30
2016-11-04T10:02:07.923Z,6.34
2016-11-04T10:03:07.488Z,6.46
2016-11-04T10:04:08.014Z,6.47
2016-11-04T10:05:07.638Z,6.44
2016-11-04T10:06:07.062Z,6.45
2016-11-04T10:07:07.635Z,6.50
2016-11-04T10:08:07.272Z,6.57
2016-11-04T10:09:07.823Z,6.61
2016-11-04T10:10:07.473Z,6.59
2016-11-04T10:11:08.094Z,6.60
2016-11-04T10:12:07.691Z,6.64
2016-11-04T10:13:07.241Z,6.64
2016-11-04T10:14:07.751Z,6.71
2016-11-04T10:15:07.418Z,6.79
2016-11-04T10:16:08.153Z,6.79
2016-11-04T10:17:07.893Z,6.82
2016-11-04T10:18:07.516Z,6.83
2016-11-04T10:19:07.130Z,6.80
2016-11-04T10:20:07.793Z,6.79
2016-11-04T10:21:07.529Z,6.77
2016-11-04T10:22:08.131Z,6.82
2016-11-04T10:23:07.640Z,6.81
2016-11-04T10:24:07.252Z,6.84
2016-11-04T10:25:07.802Z,6.86
2016-11-04T10:26:07.329Z,6.89
2016-11-04T10:27:07.772Z,6.92
2016-11-04T10:28:07.260Z,6.93
2016-11-04T10:29:07.952Z,6.93
2016-11-04T10:30:07.674Z,6.95
2016-11-04T10:31:07.316Z,6.92
2016-11-04T10:32:07.926Z,6.92
2016-11-04T10:33:07.546Z,6.91
2016-11-04T10:34:08.198Z,6.93
2016-11-04T10:35:07.865Z,6.95
2016-11-04T10:36:07.413Z,7.02
2016-11-04T10:37:07.997Z,7.13
2016-11-04T10:38:07.623Z,7.09
2016-11-04T10:39:07.204Z,7.20
2016-11-04T10:40:07.894Z,7.23
2016-11-04T10:41:07.375Z,7.22
2016-11-04T10:42:07.911Z,7.22
2016-11-04T10:43:07.469Z,7.22
2016-11-04T10:44:08.199Z,7.24
2016-11-04T10:45:07.411Z,7.29
2016-11-04T10:46:07.986Z,7.29
2016-11-04T10:47:07.529Z,7.29
2016-11-04T10:48:08.115Z,7.33
2016-11-04T10:49:07.778Z,7.31
2016-11-04T10:50:07.480Z,7.36
2016-11-04T10:51:08.076Z,7.40
2016-11-04T10:52:07.821Z,7.40
2016-11-04T10:53:07.538Z,7.39
2016-11-04T10:54:07.653Z,7.37
2016-11-04T10:55:07.140Z,7.40
2016-11-04T10:56:07.764Z,7.39
2016-11-04T10:57:07.421Z,7.42
2016-11-04T10:58:08.096Z,7.46
2016-11-04T10:59:08.104Z,7.49
2016-11-04T11:00:07.974Z,7.55
2016-11-04T11:01:07.536Z,7.62
2016-11-04T11:02:08.172Z,7.69
2016-11-04T11:03:07.812Z,7.72
2016-11-04T11:04:07.736Z,7.79
2016-11-04T11:05:07.337Z,7.85
2016-11-04T11:06:07.881Z,7.84
2016-11-04T11:07:07.352Z,7.84
2016-11-04T11:08:07.793Z,7.83
2016-11-04T11:09:07.614Z,7.85
2016-11-04T11:10:07.160Z,7.88
2016-11-04T11:11:07.654Z,7.85
2016-11-04T11:12:07.166Z,7.83
2016-11-04T11:13:07.761Z,7.79
2016-11-04T11:14:07.355Z,7.78
2016-11-04T11:15:08.067Z,7.77
2016-11-04T11:16:07.705Z,7.81
2016-11-04T11:17:07.347Z,7.86
2016-11-04T11:18:07.954Z,7.87
2016-11-04T11:19:07.682Z,7.92
2016-11-04T11:20:07.220Z,7.96
2016-11-04T11:21:07.870Z,8.03
2016-11-04T11:22:07.432Z,8.06
2016-11-04T11:23:07.924Z,8.06
2016-11-04T11:24:07.411Z,8.14
2016-11-04T11:25:08.000Z,8.20
2016-11-04T11:26:07.516Z,8.18
2016-11-04T11:27:08.160Z,8.20
2016-11-04T11:28:07.723Z,8.25
2016-11-04T11:29:07.458Z,8.27
2016-11-04T11:30:08.115Z,8.27
2016-11-04T11:31:07.957Z,8.33
2016-11-04T11:32:07.584Z,8.35
2016-11-04T11:33:07.287Z,8.30
2016-11-04T11:34:07.871Z,8.30
2016-11-04T11:35:07.375Z,8.37
2016-11-04T11:36:07.985Z,8.39
2016-11-04T11:37:07.625Z,8.41
2016-11-04T11:38:07.264Z,8.42
2016-11-04T11:39:07.433Z,8.45
2016-11-04T11:40:08.031Z,8.50
2016-11-04T11:41:07.567Z,8.54
2016-11-04T11:42:08.205Z,8.58
2016-11-04T11:43:07.782Z,8.69
2016-11-04T11:44:07.221Z,8.73
2016-11-04T11:45:07.771Z,8.76
2016-11-04T11:46:07.348Z,8.74
2016-11-04T11:47:07.944Z,8.70
2016-11-04T11:48:07.596Z,8.62
2016-11-04T11:49:07.309Z,8.65
2016-11-04T11:50:07.792Z,8.71
2016-11-04T11:51:07.348Z,8.74
2016-11-04T11:52:08.986Z,8.73
2016-11-04T11:53:07.833Z,8.69
2016-11-04T11:54:07.492Z,8.68
2016-11-04T11:55:08.167Z,8.70
2016-11-04T11:56:07.672Z,8.74
2016-11-04T11:57:07.225Z,8.73
2016-11-04T11:58:07.949Z,8.80
2016-11-04T11:59:07.753Z,8.87
2016-11-04T12:00:07.371Z,8.89
2016-11-04T12:01:07.932Z,8.92
2016-11-04T12:02:07.522Z,9.09
2016-11-04T12:03:08.139Z,9.29
2016-11-04T12:04:07.677Z,9.19
2016-11-04T12:05:07.277Z,9.21
2016-11-04T12:06:07.920Z,9.21
2016-11-04T12:07:07.501Z,9.26
2016-11-04T12:08:08.102Z,9.27
2016-11-04T12:09:07.688Z,9.28
2016-11-04T12:10:07.158Z,9.25
2016-11-04T12:11:07.785Z,9.19
2016-11-04T12:12:07.372Z,9.16
2016-11-04T12:13:07.778Z,9.13
2016-11-04T12:14:07.422Z,9.27
2016-11-04T12:15:08.015Z,9.27
2016-11-04T12:16:07.954Z,9.17
2016-11-04T12:17:07.941Z,9.11
2016-11-04T12:18:07.635Z,9.17
2016-11-04T12:19:07.198Z,9.22
2016-11-04T12:20:07.713Z,9.18
2016-11-04T12:21:07.991Z,9.19
2016-11-04T12:22:07.552Z,9.24
2016-11-04T12:23:08.172Z,9.23
2016-11-04T12:24:07.778Z,9.17
2016-11-04T12:25:07.466Z,9.30
2016-11-04T12:26:08.033Z,9.32
2016-11-04T12:27:07.629Z,9.34
2016-11-04T12:28:07.080Z,9.34
2016-11-04T12:29:07.568Z,9.41
2016-11-04T12:30:08.080Z,9.42
2016-11-04T12:31:07.623Z,9.48
2016-11-04T12:32:07.112Z,9.46
2016-11-04T12:33:07.674Z,9.50
2016-11-04T12:34:07.282Z,9.47
2016-11-04T12:35:07.942Z,9.39
2016-11-04T12:36:07.528Z,9.42
2016-11-04T12:37:08.121Z,9.45
2016-11-04T12:38:07.707Z,9.56
2016-11-04T12:39:07.183Z,9.67
2016-11-04T12:40:07.745Z,9.57
2016-11-04T12:41:07.271Z,9.53
2016-11-04T12:42:07.885Z,9.58
2016-11-04T12:43:07.453Z,9.71
2016-11-04T12:44:08.013Z,9.75
2016-11-04T12:45:07.582Z,9.78
2016-11-04T12:46:08.213Z,9.77
2016-11-04T12:47:07.875Z,9.73
2016-11-04T12:48:07.371Z,9.71
2016-11-04T12:49:07.938Z,9.70
2016-11-04T12:50:07.515Z,9.75
2016-11-04T12:51:08.019Z,9.76
2016-11-04T12:52:07.626Z,9.80
2016-11-04T12:53:07.073Z,9.91
2016-11-04T12:54:07.597Z,9.99
2016-11-04T12:55:07.310Z,10.09
2016-11-04T12:56:07.861Z,10.19
2016-11-04T12:57:07.499Z,10.29
2016-11-04T12:58:08.094Z,10.25
2016-11-04T12:59:07.733Z,10.23
2016-11-04T13:00:07.366Z,10.27
2016-11-04T13:01:07.897Z,10.32
2016-11-04T13:02:07.507Z,10.35
2016-11-04T13:03:07.960Z,10.38
2016-11-04T13:04:07.576Z,10.39
2016-11-04T13:05:08.263Z,10.50
2016-11-04T13:06:07.949Z,10.47
2016-11-04T13:07:07.632Z,10.50
2016-11-04T13:08:07.348Z,10.60
2016-11-04T13:09:08.010Z,10.74
2016-11-04T13:10:07.621Z,10.91
2016-11-04T13:11:07.254Z,11.07
2016-11-04T13:12:07.914Z,11.18
2016-11-04T13:13:07.521Z,10.98
2016-11-04T13:14:08.146Z,11.03
2016-11-04T13:15:07.756Z,11.06
2016-11-04T13:16:07.492Z,11.04